createdAt,value
2022-08-19T00:02:01.639Z,27.2
2022-08-19T00:07:01.374Z,27.4
2022-08-19T00:12:01.658Z,28.0
2022-08-19T00:17:01.587Z,28.0
2022-08-19T00:32:01.662Z,28.0
2022-08-19T00:37:01.659Z,28.3
2022-08-19T00:42:01.590Z,28.2
2022-08-19T00:47:01.415Z,28.7
2022-08-19T00:52:01.363Z,29.1
2022-08-19T00:57:01.232Z,29.2
2022-08-19T01:02:01.524Z,29.3
2022-08-19T01:07:01.822Z,30.2
2022-08-19T01:12:02.666Z,30.6
2022-08-19T01:17:02.138Z,31.2
2022-08-19T01:22:16.917Z,31.4
2022-08-19T01:27:01.626Z,31.3
2022-08-19T01:32:01.643Z,31.6
2022-08-19T01:37:01.648Z,31.0
2022-08-19T01:42:01.671Z,31.1
2022-08-19T01:47:01.269Z,31.5
2022-08-19T01:52:01.671Z,32.0
2022-08-19T01:57:01.730Z,32.0
2022-08-19T02:02:01.648Z,32.8
2022-08-19T02:07:01.664Z,33.4
2022-08-19T02:17:01.654Z,33.1
2022-08-19T02:22:01.680Z,33.6
2022-08-19T02:27:01.656Z,33.5
2022-08-19T02:37:04.617Z,33.9
2022-08-19T02:42:01.944Z,34.7
2022-08-19T02:47:01.656Z,33.8
2022-08-19T02:52:02.291Z,33.2
2022-08-19T02:57:02.203Z,32.5
2022-08-19T03:02:01.680Z,31.9
2022-08-19T03:07:11.477Z,31.6
2022-08-19T03:12:01.712Z,32.1
2022-08-19T03:17:01.645Z,32.8
2022-08-19T03:22:01.652Z,32.7
2022-08-19T03:27:02.328Z,33.1
2022-08-19T03:32:01.736Z,33.1
2022-08-19T03:37:01.701Z,32.9
2022-08-19T03:47:01.648Z,33.8
2022-08-19T03:52:01.650Z,33.4
2022-08-19T03:57:01.628Z,33.4
2022-08-19T04:02:01.614Z,34.0
2022-08-19T04:07:01.643Z,33.6
2022-08-19T04:12:01.630Z,33.2
2022-08-19T04:17:01.623Z,32.9
2022-08-19T04:22:01.617Z,32.3
2022-08-19T04:27:01.673Z,31.5
2022-08-19T04:32:09.835Z,31.2
2022-08-19T04:37:01.622Z,30.7
2022-08-19T04:42:02.286Z,31.6
2022-08-19T04:47:01.679Z,32.4
2022-08-19T04:52:01.615Z,32.8
2022-08-19T04:57:01.619Z,33.2
2022-08-19T05:02:01.612Z,32.6
2022-08-19T05:07:02.519Z,31.7
2022-08-19T05:12:01.635Z,30.9
2022-08-19T05:22:01.621Z,29.9
2022-08-19T05:27:01.636Z,30.5
2022-08-19T05:32:02.127Z,32.1
2022-08-19T05:37:01.672Z,31.7
2022-08-19T05:42:01.610Z,31.0
2022-08-19T05:47:01.740Z,29.9
2022-08-19T05:52:01.632Z,28.0
2022-08-19T05:57:01.632Z,24.7
2022-08-19T06:02:01.518Z,23.2
2022-08-19T06:07:13.124Z,22.2
2022-08-19T06:12:01.670Z,21.7
2022-08-19T06:17:07.469Z,21.1
2022-08-19T06:22:02.473Z,21.5
2022-08-19T06:27:02.121Z,21.6
2022-08-19T06:37:01.625Z,22.7
2022-08-19T06:42:01.635Z,24.6
2022-08-19T06:47:14.449Z,25.6
2022-08-19T06:52:02.100Z,27.4
2022-08-19T06:57:01.720Z,29.2
2022-08-19T07:02:01.637Z,29.4
2022-08-19T07:17:01.618Z,29.6
2022-08-19T07:22:01.635Z,29.6
2022-08-19T07:27:01.631Z,29.9
2022-08-19T07:32:01.621Z,30.1
2022-08-19T07:37:01.621Z,30.3
2022-08-19T07:42:01.621Z,30.8
2022-08-19T07:47:01.603Z,30.4
2022-08-19T07:52:01.610Z,30.4
2022-08-19T07:57:01.714Z,30.0
2022-08-19T08:02:01.757Z,29.4
2022-08-19T08:07:06.560Z,28.8
2022-08-19T08:12:30.919Z,29.0
2022-08-19T08:17:01.531Z,28.4
2022-08-19T08:22:01.580Z,28.4
2022-08-19T08:27:01.670Z,29.0
2022-08-19T08:37:01.640Z,28.8
2022-08-19T08:42:16.864Z,29.4
2022-08-19T08:47:01.613Z,29.1
2022-08-19T08:52:15.263Z,27.8
2022-08-19T08:57:01.614Z,27.9
2022-08-19T09:02:01.740Z,28.3
2022-08-19T09:12:01.419Z,28.8
2022-08-19T09:17:01.372Z,30.1
2022-08-19T09:22:01.447Z,30.7
2022-08-19T09:27:08.347Z,30.7
2022-08-19T09:32:01.397Z,31.2
2022-08-19T09:37:01.649Z,30.8
2022-08-19T09:42:01.825Z,30.0
2022-08-19T09:47:01.588Z,29.0
2022-08-19T09:52:01.637Z,27.5
2022-08-19T09:57:05.135Z,25.8
2022-08-19T10:02:11.295Z,24.4
2022-08-19T10:07:01.651Z,24.2
2022-08-19T10:12:02.911Z,23.6
2022-08-19T10:22:03.583Z,23.6
2022-08-19T10:27:01.639Z,24.8
2022-08-19T10:32:03.463Z,23.9
2022-08-19T10:37:02.265Z,23.5
2022-08-19T10:42:01.639Z,23.6
2022-08-19T10:47:02.988Z,23.7
2022-08-19T10:52:01.960Z,23.0
2022-08-19T10:57:01.636Z,24.1
2022-08-19T11:02:01.676Z,24.8
2022-08-19T11:07:01.675Z,25.6
2022-08-19T11:12:04.947Z,25.9
2022-08-19T11:17:01.638Z,26.7
2022-08-19T11:22:04.055Z,27.2
2022-08-19T11:27:03.976Z,27.5
2022-08-19T11:32:01.739Z,27.6
2022-08-19T11:37:03.206Z,28.9
2022-08-19T11:42:01.661Z,30.4
2022-08-19T11:48:01.502Z,31.2
2022-08-19T11:53:01.851Z,33.5
2022-08-19T11:58:01.802Z,34.1
2022-08-19T12:03:02.064Z,34.6
2022-08-19T12:13:01.331Z,35.2
2022-08-19T12:18:03.172Z,34.3
2022-08-19T12:23:02.236Z,34.8
2022-08-19T12:28:02.454Z,34.3
2022-08-19T12:33:01.648Z,33.1
2022-08-19T12:38:02.088Z,32.2
2022-08-19T12:43:01.664Z,31.7
2022-08-19T12:53:01.645Z,31.4
2022-08-19T12:58:01.655Z,31.4
2022-08-19T13:03:01.637Z,31.2
2022-08-19T13:08:01.648Z,31.8
2022-08-19T13:13:01.527Z,31.5
2022-08-19T13:18:01.425Z,31.9
2022-08-19T13:23:01.372Z,32.5
2022-08-19T13:28:01.530Z,33.1
2022-08-19T13:33:01.515Z,33.2
2022-08-19T13:38:01.238Z,33.0
2022-08-19T13:43:13.720Z,33.3
2022-08-19T13:49:01.662Z,32.6
2022-08-19T13:54:01.644Z,32.7
2022-08-19T13:59:01.640Z,32.8
2022-08-19T14:04:01.639Z,33.9
2022-08-19T14:09:01.659Z,33.8
2022-08-19T14:14:02.038Z,34.6
2022-08-19T14:19:01.669Z,35.3
2022-08-19T14:24:01.677Z,36.0
2022-08-19T14:29:02.270Z,36.4
2022-08-19T14:34:01.651Z,37.2
2022-08-19T14:39:01.802Z,37.4
2022-08-19T14:44:01.770Z,36.8
2022-08-19T14:49:09.737Z,37.4
2022-08-19T14:54:01.580Z,37.6
2022-08-19T14:59:01.677Z,37.4
2022-08-19T15:04:01.667Z,37.8
2022-08-19T15:09:04.648Z,37.4
2022-08-19T15:14:01.648Z,36.5
2022-08-19T15:19:01.644Z,35.3
2022-08-19T15:24:01.710Z,35.6
2022-08-19T15:34:01.652Z,36.1
2022-08-19T15:39:01.649Z,36.1
2022-08-19T15:44:01.652Z,35.6
2022-08-19T15:49:01.736Z,34.7
2022-08-19T15:54:03.848Z,33.6
2022-08-19T15:59:01.635Z,32.6
2022-08-19T16:04:02.197Z,32.7
2022-08-19T16:09:01.629Z,33.3
2022-08-19T16:14:01.664Z,33.5
2022-08-19T16:19:01.690Z,33.7
2022-08-19T16:24:01.716Z,35.0
2022-08-19T16:29:01.641Z,34.9
2022-08-19T16:34:01.643Z,34.4
2022-08-19T16:39:01.609Z,34.0
2022-08-19T16:44:01.618Z,34.2
2022-08-19T16:49:01.616Z,33.3
2022-08-19T16:54:01.630Z,32.7
2022-08-19T16:59:01.631Z,33.1
2022-08-19T17:04:01.616Z,32.4
2022-08-19T17:09:06.630Z,31.7
2022-08-19T17:14:01.522Z,31.5
2022-08-19T17:19:01.442Z,32.0
2022-08-19T17:24:01.680Z,31.6
2022-08-19T17:29:01.383Z,32.8
2022-08-19T17:34:03.827Z,33.2
2022-08-19T17:39:01.413Z,33.2
2022-08-19T17:44:01.420Z,32.6
2022-08-19T17:49:01.584Z,32.6
2022-08-19T17:54:01.560Z,31.7
2022-08-19T18:04:01.607Z,32.2
2022-08-19T18:09:01.663Z,32.2
2022-08-19T18:14:01.657Z,32.8
2022-08-19T18:19:01.647Z,33.1
2022-08-19T18:24:02.249Z,33.3
2022-08-19T18:29:01.952Z,32.2
2022-08-19T18:34:02.106Z,32.7
2022-08-19T18:39:07.117Z,32.3
2022-08-19T18:44:01.671Z,32.6
2022-08-19T18:50:03.191Z,33.5
2022-08-19T18:55:01.647Z,34.4
2022-08-19T19:00:03.425Z,33.8
2022-08-19T19:05:07.443Z,34.6
2022-08-19T19:10:01.646Z,34.3
2022-08-19T19:15:02.218Z,33.2
2022-08-19T19:20:01.663Z,32.7
2022-08-19T19:25:02.964Z,33.0
2022-08-19T19:30:07.456Z,32.0
2022-08-19T19:36:02.009Z,32.0
2022-08-19T19:41:01.578Z,31.6
2022-08-19T19:46:01.551Z,30.8
2022-08-19T19:51:02.244Z,30.0
2022-08-19T19:56:01.575Z,29.4
2022-08-19T20:01:10.059Z,27.5
2022-08-19T20:06:02.001Z,26.5
2022-08-19T20:16:01.621Z,25.0
2022-08-19T20:21:02.039Z,24.4
2022-08-19T20:26:01.627Z,25.2
2022-08-19T20:31:04.370Z,25.9
2022-08-19T20:36:01.632Z,25.5
2022-08-19T20:41:01.649Z,27.0
2022-08-19T20:46:01.634Z,26.6
2022-08-19T20:51:06.782Z,25.8
2022-08-19T20:56:02.117Z,24.9
2022-08-19T21:01:01.811Z,25.2
2022-08-19T21:06:01.990Z,25.1
2022-08-19T21:12:01.610Z,26.1
2022-08-19T21:17:02.165Z,25.8
2022-08-19T21:22:01.626Z,25.0
2022-08-19T21:27:06.633Z,24.1
2022-08-19T21:32:01.617Z,24.3
2022-08-19T21:37:01.886Z,22.2
2022-08-19T21:42:01.619Z,22.5
2022-08-19T21:47:01.621Z,23.7
2022-08-19T21:52:01.642Z,23.1
2022-08-19T21:57:02.851Z,22.1
2022-08-19T22:07:01.594Z,23.8
2022-08-19T22:12:01.626Z,24.9
2022-08-19T22:17:02.480Z,27.1
2022-08-19T22:22:01.738Z,27.0
2022-08-19T22:27:01.650Z,27.8
2022-08-19T22:32:28.884Z,26.0
2022-08-19T22:37:01.635Z,23.8
2022-08-19T22:42:01.650Z,23.6
2022-08-19T22:52:01.651Z,22.4
2022-08-19T22:57:01.644Z,23.3
2022-08-19T23:02:01.620Z,24.2
2022-08-19T23:07:06.632Z,24.5
2022-08-19T23:12:01.637Z,24.6
2022-08-19T23:17:01.519Z,26.9
2022-08-19T23:22:01.620Z,26.6
2022-08-19T23:27:01.622Z,26.5
2022-08-19T23:32:02.294Z,23.8
2022-08-19T23:37:01.623Z,23.3
2022-08-19T23:42:01.627Z,21.2
2022-08-19T23:47:07.060Z,23.0
2022-08-19T23:52:01.616Z,24.1
2022-08-19T23:57:02.274Z,26.3
